Time;durP1;ratioP1;P1;durP2;ratioP2;P2;SDS_P1;SDS_P2;PMS_P1;PMS_P2;Temp;Humidity;BMP_temperature;BMP_pressure;BME280_temperature;BME280_humidity;BME280_pressure;Samples;Min_cycle;Max_cycle;Signal;HPM_P1;HPM_P2
2022/09/01 00:01:38;;;;;;;22.13;2.90;;;;;;;;;;4939892;29;20177;-63
2022/09/01 00:04:05;;;;;;;18.58;2.97;;;;;;;;;;4940413;29;20066;-63
2022/09/01 00:06:32;;;;;;;22.90;3.38;;;;;;;;;;4936931;29;20052;-63
2022/09/01 00:09:04;;;;;;;41.30;5.05;;;;;;;;;;4938657;29;20131;-63
2022/09/01 00:11:31;;;;;;;16.63;2.60;;;;;;;;;;4939393;29;20565;-63
2022/09/01 00:14:00;;;;;;;18.10;2.67;;;;;;;;;;4943756;28;20453;-64
2022/09/01 00:16:27;;;;;;;37.75;4.57;;;;;;;;;;4938944;29;20611;-64
2022/09/01 00:18:54;;;;;;;36.10;4.63;;;;;;;;;;4954193;28;20059;-64
2022/09/01 00:21:22;;;;;;;24.13;4.38;;;;;;;;;;4935963;29;20135;-63
2022/09/01 00:23:49;;;;;;;25.38;3.58;;;;;;;;;;4939672;29;20138;-63
2022/09/01 00:26:16;;;;;;;17.95;3.22;;;;;;;;;;4939397;28;20122;-63
2022/09/01 00:28:43;;;;;;;32.67;4.53;;;;;;;;;;4938977;28;20508;-63
2022/09/01 00:31:10;;;;;;;33.75;4.45;;;;;;;;;;4949697;28;20527;-60
2022/09/01 00:33:37;;;;;;;20.27;3.35;;;;;;;;;;4937059;29;20159;-60
2022/09/01 00:36:04;;;;;;;17.00;3.08;;;;;;;;;;4932727;29;20047;-63
2022/09/01 00:38:31;;;;;;;39.25;4.95;;;;;;;;;;4941783;28;20554;-63
2022/09/01 00:40:59;;;;;;;18.13;2.90;;;;;;;;;;4938851;29;20067;-63
2022/09/01 00:43:38;;;;;;;23.90;3.65;;;;;;;;;;4938316;29;20054;-63
2022/09/01 00:46:06;;;;;;;32.13;3.65;;;;;;;;;;4952622;28;20094;-63
2022/09/01 00:48:34;;;;;;;23.52;3.67;;;;;;;;;;4950449;28;20047;-63
2022/09/01 00:51:03;;;;;;;31.15;4.07;;;;;;;;;;4937389;29;20564;-63
2022/09/01 00:53:30;;;;;;;24.38;4.32;;;;;;;;;;4938903;29;20050;-63
2022/09/01 00:55:56;;;;;;;11.68;2.45;;;;;;;;;;4939221;29;20047;-63
2022/09/01 00:58:23;;;;;;;24.45;3.45;;;;;;;;;;4938435;28;20146;-63
2022/09/01 01:00:51;;;;;;;33.65;4.20;;;;;;;;;;4937045;28;20079;-63
2022/09/01 01:03:17;;;;;;;23.17;3.53;;;;;;;;;;4935909;29;20083;-63
2022/09/01 01:05:52;;;;;;;23.17;3.92;;;;;;;;;;4937868;28;20075;-63
2022/09/01 01:08:29;;;;;;;33.25;4.38;;;;;;;;;;4938135;29;20040;-63
2022/09/01 01:10:56;;;;;;;20.70;3.33;;;;;;;;;;4938623;28;20050;-64
2022/09/01 01:13:26;;;;;;;25.63;3.78;;;;;;;;;;4938066;28;20044;-63
2022/09/01 01:15:53;;;;;;;20.13;3.20;;;;;;;;;;4937604;28;20086;-63
2022/09/01 01:18:23;;;;;;;28.20;4.32;;;;;;;;;;4953553;28;20059;-63
2022/09/01 01:23:52;;;;;;;32.13;4.70;;;;;;;;;;4937650;29;20082;-64
2022/09/01 01:26:19;;;;;;;13.25;3.00;;;;;;;;;;4928405;29;20457;-66
2022/09/01 01:28:45;;;;;;;31.17;4.35;;;;;;;;;;4945882;29;20039;-65
2022/09/01 01:31:13;;;;;;;33.30;4.93;;;;;;;;;;4938339;29;20043;-65
2022/09/01 01:33:50;;;;;;;25.85;4.45;;;;;;;;;;4949565;29;20134;-65
2022/09/01 01:36:31;;;;;;;39.10;5.18;;;;;;;;;;4931600;29;20075;-65
2022/09/01 01:39:02;;;;;;;19.90;4.30;;;;;;;;;;4936364;29;20054;-65
2022/09/01 01:41:30;;;;;;;26.80;4.05;;;;;;;;;;4923239;29;20349;-66
2022/09/01 01:43:58;;;;;;;34.70;5.00;;;;;;;;;;4920182;29;20104;-63
2022/09/01 01:46:26;;;;;;;20.45;3.75;;;;;;;;;;4924247;29;20055;-62
2022/09/01 01:48:52;;;;;;;38.10;5.50;;;;;;;;;;4935343;29;20504;-63
2022/09/01 01:51:20;;;;;;;17.35;3.97;;;;;;;;;;4917847;29;20126;-63
2022/09/01 01:53:51;;;;;;;19.52;4.25;;;;;;;;;;4920526;29;20524;-63
2022/09/01 01:56:18;;;;;;;33.63;5.47;;;;;;;;;;4920272;29;20051;-63
2022/09/01 01:58:45;;;;;;;22.17;4.25;;;;;;;;;;4937179;28;20099;-65
2022/09/01 02:01:11;;;;;;;21.58;4.72;;;;;;;;;;4920714;29;20039;-65
2022/09/01 02:03:38;;;;;;;42.03;5.47;;;;;;;;;;4934876;28;20130;-65
2022/09/01 02:06:09;;;;;;;20.98;4.85;;;;;;;;;;4925700;28;20050;-65
2022/09/01 02:08:36;;;;;;;24.60;4.63;;;;;;;;;;4924768;28;20048;-65
2022/09/01 02:11:04;;;;;;;46.90;6.63;;;;;;;;;;4919358;29;20069;-64
2022/09/01 02:13:31;;;;;;;16.92;4.43;;;;;;;;;;4937853;29;20044;-64
2022/09/01 02:16:01;;;;;;;21.65;4.80;;;;;;;;;;4919529;29;20413;-64
2022/09/01 02:18:33;;;;;;;39.38;6.18;;;;;;;;;;4916504;28;20059;-64
2022/09/01 02:21:00;;;;;;;17.63;4.43;;;;;;;;;;4935636;29;20408;-65
2022/09/01 02:23:26;;;;;;;27.30;5.22;;;;;;;;;;4944443;28;20051;-66
2022/09/01 02:25:55;;;;;;;30.85;5.45;;;;;;;;;;4923283;29;20052;-66
2022/09/01 02:28:44;;;;;;;39.10;7.07;;;;;;;;;;4945375;28;20044;-68
2022/09/01 02:31:11;;;;;;;30.30;6.45;;;;;;;;;;4946426;29;20052;-68
2022/09/01 02:33:39;;;;;;;33.13;5.68;;;;;;;;;;4951512;29;20721;-68
2022/09/01 02:36:08;;;;;;;21.30;5.30;;;;;;;;;;4929986;29;20058;-68
2022/09/01 02:38:35;;;;;;;25.58;5.78;;;;;;;;;;4939395;28;20040;-68
2022/09/01 02:41:04;;;;;;;26.67;6.30;;;;;;;;;;4937722;29;20053;-68
2022/09/01 02:43:30;;;;;;;31.10;8.05;;;;;;;;;;4923963;29;20066;-68
2022/09/01 02:45:58;;;;;;;31.75;6.43;;;;;;;;;;4952287;29;20047;-68
2022/09/01 02:48:34;;;;;;;32.95;6.43;;;;;;;;;;4953002;29;20121;-69
2022/09/01 02:51:06;;;;;;;33.55;6.72;;;;;;;;;;4934726;29;20055;-68
2022/09/01 02:53:34;;;;;;;20.48;5.60;;;;;;;;;;4939510;29;20039;-68
2022/09/01 02:56:02;;;;;;;20.98;5.82;;;;;;;;;;4943856;28;20051;-68
2022/09/01 02:58:31;;;;;;;42.40;7.13;;;;;;;;;;4919092;29;20056;-63
2022/09/01 03:00:58;;;;;;;58.20;8.43;;;;;;;;;;4936477;28;20118;-63
2022/09/01 03:03:27;;;;;;;30.33;6.20;;;;;;;;;;4940204;28;20047;-63
2022/09/01 03:05:55;;;;;;;39.88;6.68;;;;;;;;;;4933637;29;20154;-64
2022/09/01 03:08:23;;;;;;;20.77;5.15;;;;;;;;;;4934409;29;20058;-64
2022/09/01 03:10:50;;;;;;;38.40;7.03;;;;;;;;;;4930265;29;20106;-64
2022/09/01 03:13:19;;;;;;;21.30;6.00;;;;;;;;;;4930509;29;20126;-64
2022/09/01 03:15:46;;;;;;;27.90;6.40;;;;;;;;;;4934700;28;20047;-64
2022/09/01 03:18:13;;;;;;;31.92;7.40;;;;;;;;;;4934364;29;20047;-65
2022/09/01 03:20:45;;;;;;;45.55;7.65;;;;;;;;;;4943095;28;20063;-64
2022/09/01 03:23:13;;;;;;;27.85;7.07;;;;;;;;;;4938785;28;20492;-64
2022/09/01 03:25:45;;;;;;;40.13;7.60;;;;;;;;;;4923471;29;20058;-66
2022/09/01 03:28:12;;;;;;;31.88;8.25;;;;;;;;;;4940283;29;20047;-66
2022/09/01 03:30:44;;;;;;;65.03;10.00;;;;;;;;;;4953743;28;20048;-65
2022/09/01 03:33:10;;;;;;;61.35;9.90;;;;;;;;;;4932459;29;20062;-62
2022/09/01 03:35:37;;;;;;;39.40;7.45;;;;;;;;;;4932658;29;20111;-62
2022/09/01 03:38:04;;;;;;;47.40;8.70;;;;;;;;;;4937947;29;20074;-62
2022/09/01 03:40:31;;;;;;;47.00;8.43;;;;;;;;;;4950845;28;20561;-62
2022/09/01 03:42:58;;;;;;;53.20;9.15;;;;;;;;;;4937765;29;20047;-63
2022/09/01 03:45:25;;;;;;;34.60;7.35;;;;;;;;;;4939250;29;20043;-65
2022/09/01 03:47:53;;;;;;;61.58;9.25;;;;;;;;;;4940011;28;20058;-65
2022/09/01 03:50:21;;;;;;;27.02;6.95;;;;;;;;;;4933538;29;20043;-61
2022/09/01 03:52:57;;;;;;;61.38;9.25;;;;;;;;;;4919673;29;20044;-61
2022/09/01 03:55:27;;;;;;;41.67;8.02;;;;;;;;;;4922463;29;20051;-64
2022/09/01 03:57:56;;;;;;;35.42;7.07;;;;;;;;;;4937429;29;20039;-65
2022/09/01 04:00:25;;;;;;;41.10;8.40;;;;;;;;;;4924708;29;20055;-65
2022/09/01 04:02:54;;;;;;;47.70;7.97;;;;;;;;;;4945306;28;20059;-65
2022/09/01 04:05:27;;;;;;;32.83;7.13;;;;;;;;;;4929234;29;20067;-64
2022/09/01 04:07:56;;;;;;;34.25;7.97;;;;;;;;;;4929747;29;20059;-65
2022/09/01 04:10:23;;;;;;;27.80;7.40;;;;;;;;;;4940022;29;20079;-65
2022/09/01 04:12:50;;;;;;;41.95;8.52;;;;;;;;;;4938377;28;20142;-65
2022/09/01 04:15:17;;;;;;;39.35;8.23;;;;;;;;;;4936942;29;20134;-65
2022/09/01 04:20:38;;;;;;;34.22;8.18;;;;;;;;;;4922297;29;20075;-66
2022/09/01 04:23:09;;;;;;;63.97;9.77;;;;;;;;;;4939604;29;20043;-65
2022/09/01 04:25:37;;;;;;;48.03;8.63;;;;;;;;;;4922082;29;20854;-68
2022/09/01 04:28:16;;;;;;;32.42;7.32;;;;;;;;;;4934972;29;20142;-68
2022/09/01 04:30:43;;;;;;;42.80;8.00;;;;;;;;;;4937113;29;20134;-68
2022/09/01 04:33:17;;;;;;;27.50;6.90;;;;;;;;;;4931639;28;20051;-68
2022/09/01 04:35:44;;;;;;;41.30;7.72;;;;;;;;;;4931491;28;20047;-62
2022/09/01 04:38:14;;;;;;;33.33;7.55;;;;;;;;;;4945018;28;20032;-63
2022/09/01 04:40:42;;;;;;;35.28;8.52;;;;;;;;;;4921316;29;20058;-63
2022/09/01 04:43:09;;;;;;;30.55;7.60;;;;;;;;;;4918494;29;20048;-62
2022/09/01 04:45:36;;;;;;;62.80;9.70;;;;;;;;;;4953075;29;20042;-63
2022/09/01 04:48:04;;;;;;;70.18;7.88;;;;;;;;;;4921547;29;20157;-64
2022/09/01 04:50:31;;;;;;;38.45;7.30;;;;;;;;;;4921994;29;20047;-63
2022/09/01 04:53:17;;;;;;;50.55;7.25;;;;;;;;;;4939408;28;20050;-66
2022/09/01 04:55:46;;;;;;;43.92;6.40;;;;;;;;;;4925238;29;20049;-64
2022/09/01 04:58:17;;;;;;;30.02;4.72;;;;;;;;;;4935209;29;20505;-64
2022/09/01 05:00:46;;;;;;;39.05;5.40;;;;;;;;;;4936348;28;20051;-65
2022/09/01 05:03:20;;;;;;;125.43;8.52;;;;;;;;;;4919750;29;20047;-63
2022/09/01 05:06:14;;;;;;;19.95;2.72;;;;;;;;;;4878186;29;20098;-64
2022/09/01 05:08:45;;;;;;;81.32;7.90;;;;;;;;;;4877434;29;20061;-63
2022/09/01 05:11:22;;;;;;;31.88;3.63;;;;;;;;;;4868735;29;20049;-62
2022/09/01 05:13:56;;;;;;;25.63;3.15;;;;;;;;;;4870950;29;20079;-62
2022/09/01 05:16:26;;;;;;;17.38;2.75;;;;;;;;;;4875761;29;20053;-62
2022/09/01 05:18:55;;;;;;;20.55;2.60;;;;;;;;;;4894288;29;20052;-62
2022/09/01 05:21:25;;;;;;;58.88;5.43;;;;;;;;;;4859365;29;20558;-60
2022/09/01 05:23:53;;;;;;;35.58;4.20;;;;;;;;;;4875996;29;20156;-65
2022/09/01 05:26:22;;;;;;;33.97;4.50;;;;;;;;;;4869655;29;20049;-64
2022/09/01 05:28:52;;;;;;;52.30;5.82;;;;;;;;;;4876864;29;20048;-64
2022/09/01 05:31:20;;;;;;;38.72;4.78;;;;;;;;;;4874357;29;20459;-64
2022/09/01 05:33:49;;;;;;;54.28;5.07;;;;;;;;;;4874056;29;20041;-67
2022/09/01 05:36:18;;;;;;;28.75;3.58;;;;;;;;;;4878121;29;20056;-64
2022/09/01 05:38:46;;;;;;;22.20;3.40;;;;;;;;;;4865055;29;20053;-67
2022/09/01 05:41:14;;;;;;;39.92;4.38;;;;;;;;;;4872812;29;20044;-63
2022/09/01 05:43:45;;;;;;;41.13;4.35;;;;;;;;;;4917000;29;20098;-65
2022/09/01 05:46:16;;;;;;;15.10;2.72;;;;;;;;;;4936070;29;20074;-65
2022/09/01 05:48:48;;;;;;;58.80;5.53;;;;;;;;;;4935700;28;20520;-64
2022/09/01 05:51:18;;;;;;;10.00;1.92;;;;;;;;;;4928688;28;20046;-65
2022/09/01 05:54:06;;;;;;;28.73;3.42;;;;;;;;;;4935827;29;20062;-65
2022/09/01 05:56:38;;;;;;;22.80;3.05;;;;;;;;;;4935928;29;20175;-65
2022/09/01 05:59:10;;;;;;;35.50;3.55;;;;;;;;;;4926560;29;20114;-65
2022/09/01 06:01:56;;;;;;;33.72;3.90;;;;;;;;;;4921003;29;20529;-65
2022/09/01 06:04:25;;;;;;;34.17;3.97;;;;;;;;;;4947944;28;20681;-64
2022/09/01 06:06:55;;;;;;;31.23;3.63;;;;;;;;;;4935826;29;20189;-64
2022/09/01 06:09:38;;;;;;;47.90;5.30;;;;;;;;;;4948618;28;20078;-65
2022/09/01 06:12:05;;;;;;;38.72;3.72;;;;;;;;;;4936868;29;20099;-65
2022/09/01 06:14:32;;;;;;;510.13;34.80;;;;;;;;;;4920689;29;20035;-65
2022/09/01 06:16:59;;;;;;;32.50;4.30;;;;;;;;;;4923767;29;20086;-64
2022/09/01 06:19:26;;;;;;;37.63;3.65;;;;;;;;;;4930749;29;20056;-65
2022/09/01 06:21:52;;;;;;;34.30;3.50;;;;;;;;;;4949681;28;20054;-65
2022/09/01 06:24:19;;;;;;;39.85;3.85;;;;;;;;;;4920707;29;20046;-65
2022/09/01 06:26:46;;;;;;;50.75;5.35;;;;;;;;;;4919417;29;20055;-65
2022/09/01 06:29:14;;;;;;;22.20;2.70;;;;;;;;;;4935865;29;20492;-65
2022/09/01 06:31:51;;;;;;;28.00;2.95;;;;;;;;;;4921220;29;20601;-64
2022/09/01 06:34:19;;;;;;;11.38;1.52;;;;;;;;;;4950445;28;20046;-65
2022/09/01 06:36:50;;;;;;;49.25;4.90;;;;;;;;;;4935122;28;20067;-65
2022/09/01 06:39:18;;;;;;;;;;;;;;;;;;4918669;29;20509;-64
2022/09/01 06:41:51;;;;;;;36.63;3.97;;;;;;;;;;4945283;29;19949;-64
2022/09/01 06:44:23;;;;;;;27.33;2.90;;;;;;;;;;4934422;29;20368;-65
2022/09/01 06:46:58;;;;;;;18.88;2.35;;;;;;;;;;4931436;28;20051;-65
2022/09/01 06:49:31;;;;;;;30.08;3.50;;;;;;;;;;4943797;29;20040;-64
2022/09/01 06:51:58;;;;;;;;;;;;;;;;;;4919537;29;20047;-64
2022/09/01 06:54:26;;;;;;;267.48;19.23;;;;;;;;;;4916828;29;19923;-64
2022/09/01 06:56:52;;;;;;;149.05;11.65;;;;;;;;;;4942334;28;20092;-64
2022/09/01 06:59:20;;;;;;;40.97;4.38;;;;;;;;;;4925793;29;20452;-65
2022/09/01 07:01:50;;;;;;;22.42;2.50;;;;;;;;;;4934910;29;20047;-65
2022/09/01 07:04:22;;;;;;;44.85;4.55;;;;;;;;;;4930793;29;20071;-65
2022/09/01 07:06:56;;;;;;;45.53;4.57;;;;;;;;;;4948710;29;20049;-65
2022/09/01 07:10:14;;;;;;;41.35;4.03;;;;;;;;;;4948801;29;20047;-65
2022/09/01 07:13:17;;;;;;;68.00;5.70;;;;;;;;;;4927942;29;20690;-65
2022/09/01 07:15:48;;;;;;;64.47;5.97;;;;;;;;;;4915963;28;20075;-65
2022/09/01 07:18:39;;;;;;;29.75;3.20;;;;;;;;;;4917823;29;20060;-65
2022/09/01 07:21:07;;;;;;;19.90;2.35;;;;;;;;;;4918730;29;20043;-64
2022/09/01 07:23:56;;;;;;;19.30;2.90;;;;;;;;;;4934743;29;20098;-65
2022/09/01 07:26:51;;;;;;;31.55;3.40;;;;;;;;;;4945839;28;20155;-65
2022/09/01 07:29:18;;;;;;;19.05;2.33;;;;;;;;;;4934545;29;20579;-64
2022/09/01 07:31:45;;;;;;;36.75;4.13;;;;;;;;;;4934200;29;20140;-65
2022/09/01 07:34:33;;;;;;;26.40;3.00;;;;;;;;;;4930796;29;20035;-65
2022/09/01 07:37:07;;;;;;;39.58;3.97;;;;;;;;;;4932581;29;20055;-65
2022/09/01 07:39:55;;;;;;;24.95;2.67;;;;;;;;;;4934325;29;20043;-64
2022/09/01 07:42:39;;;;;;;41.65;3.97;;;;;;;;;;4936148;28;20394;-65
2022/09/01 07:45:46;;;;;;;29.63;2.70;;;;;;;;;;4936853;29;20139;-64
2022/09/01 07:48:19;;;;;;;49.50;4.35;;;;;;;;;;4949694;29;20047;-64
2022/09/01 07:51:06;;;;;;;18.83;2.08;;;;;;;;;;4934295;29;20094;-64
2022/09/01 07:53:53;;;;;;;39.03;3.70;;;;;;;;;;4933911;29;20074;-64
2022/09/01 07:56:21;;;;;;;23.52;2.17;;;;;;;;;;4923959;29;20055;-67
2022/09/01 07:58:49;;;;;;;37.78;3.38;;;;;;;;;;4942425;28;20086;-64
2022/09/01 08:01:17;;;;;;;37.95;3.70;;;;;;;;;;4918308;29;20051;-64
2022/09/01 08:03:47;;;;;;;31.90;3.20;;;;;;;;;;4949112;28;20051;-63
2022/09/01 08:06:18;;;;;;;35.05;2.70;;;;;;;;;;4934844;29;20135;-65
2022/09/01 08:08:45;;;;;;;61.42;4.97;;;;;;;;;;4937091;28;20044;-64
2022/09/01 08:11:19;;;;;;;27.98;2.40;;;;;;;;;;4922689;29;20047;-63
2022/09/01 08:14:05;;;;;;;30.80;2.72;;;;;;;;;;4946620;28;20047;-63
2022/09/01 08:16:32;;;;;;;12.40;1.48;;;;;;;;;;4923012;29;20563;-63
2022/09/01 08:19:18;;;;;;;44.25;3.90;;;;;;;;;;4931035;29;20441;-64
2022/09/01 08:22:02;;;;;;;20.65;1.95;;;;;;;;;;4918612;29;20043;-63
2022/09/01 08:24:45;;;;;;;44.40;3.83;;;;;;;;;;4930646;29;20050;-64
2022/09/01 08:27:12;;;;;;;26.70;2.75;;;;;;;;;;4915631;29;20052;-64
2022/09/01 08:29:39;;;;;;;44.67;3.97;;;;;;;;;;4911644;29;20056;-64
2022/09/01 08:32:06;;;;;;;30.92;2.80;;;;;;;;;;4931453;29;20412;-63
2022/09/01 08:34:33;;;;;;;37.53;2.58;;;;;;;;;;4931941;29;20044;-64
2022/09/01 08:36:59;;;;;;;37.65;3.28;;;;;;;;;;4902725;29;20044;-63
2022/09/01 08:39:26;;;;;;;520.10;34.25;;;;;;;;;;4916154;29;20050;-63
2022/09/01 08:41:55;;;;;;;95.28;7.68;;;;;;;;;;4931481;29;20126;-64
2022/09/01 08:44:24;;;;;;;35.33;3.05;;;;;;;;;;4923395;29;20055;-63
2022/09/01 08:46:58;;;;;;;31.05;2.88;;;;;;;;;;4907210;29;20067;-64
2022/09/01 08:49:25;;;;;;;22.55;2.15;;;;;;;;;;4923191;29;20134;-64
2022/09/01 08:52:23;;;;;;;27.85;2.30;;;;;;;;;;4934949;29;20046;-67
2022/09/01 08:54:55;;;;;;;54.45;4.72;;;;;;;;;;4933202;29;20044;-66
2022/09/01 08:57:26;;;;;;;16.45;2.55;;;;;;;;;;4916162;29;20121;-66
2022/09/01 09:00:13;;;;;;;190.57;13.77;;;;;;;;;;4931238;29;20050;-65
2022/09/01 09:02:49;;;;;;;38.03;3.45;;;;;;;;;;4930552;29;20039;-65
2022/09/01 09:05:35;;;;;;;33.53;2.95;;;;;;;;;;4930563;29;20043;-66
2022/09/01 09:08:04;;;;;;;21.58;2.33;;;;;;;;;;4931816;29;20048;-66
2022/09/01 09:10:40;;;;;;;37.35;3.60;;;;;;;;;;4920107;29;20448;-66
2022/09/01 09:13:11;;;;;;;24.70;2.30;;;;;;;;;;4919761;29;20047;-65
2022/09/01 09:15:46;;;;;;;50.22;4.13;;;;;;;;;;4919792;29;20501;-66
2022/09/01 09:18:16;;;;;;;23.13;2.10;;;;;;;;;;4943140;29;20052;-65
2022/09/01 09:21:07;;;;;;;19.95;1.90;;;;;;;;;;4945636;29;20065;-65
2022/09/01 09:23:37;;;;;;;16.40;1.85;;;;;;;;;;4941991;29;20139;-66
2022/09/01 09:26:04;;;;;;;16.27;1.85;;;;;;;;;;4938883;28;20067;-67
2022/09/01 09:28:33;;;;;;;54.28;5.45;;;;;;;;;;4938002;28;20084;-65
2022/09/01 09:31:18;;;;;;;16.25;2.10;;;;;;;;;;4938359;28;20123;-66
2022/09/01 09:33:45;;;;;;;42.60;4.03;;;;;;;;;;4952243;28;20047;-65
2022/09/01 09:36:19;;;;;;;23.43;2.83;;;;;;;;;;4946184;28;20507;-65
2022/09/01 09:39:02;;;;;;;29.48;2.95;;;;;;;;;;4940371;28;20826;-66
2022/09/01 09:41:30;;;;;;;22.45;2.45;;;;;;;;;;4938449;29;20070;-66
2022/09/01 09:44:03;;;;;;;16.95;2.22;;;;;;;;;;4937986;28;20177;-65
2022/09/01 09:46:32;;;;;;;36.17;3.90;;;;;;;;;;4938406;28;20122;-66
2022/09/01 09:49:14;;;;;;;21.30;2.55;;;;;;;;;;4937412;28;20357;-66
2022/09/01 09:51:42;;;;;;;35.92;3.80;;;;;;;;;;4937500;28;20605;-65
2022/09/01 09:54:20;;;;;;;12.13;1.67;;;;;;;;;;4937826;29;20461;-65
2022/09/01 09:56:48;;;;;;;85.57;8.25;;;;;;;;;;4937238;28;20047;-65
2022/09/01 09:59:16;;;;;;;20.40;2.65;;;;;;;;;;4937880;29;20035;-65
2022/09/01 10:02:15;;;;;;;31.45;3.58;;;;;;;;;;4937879;29;20047;-65
2022/09/01 10:04:43;;;;;;;52.78;4.80;;;;;;;;;;4937549;28;20455;-66
2022/09/01 10:07:22;;;;;;;37.70;3.33;;;;;;;;;;4921093;29;20144;-64
2022/09/01 10:09:49;;;;;;;28.75;2.78;;;;;;;;;;4953500;29;20047;-65
2022/09/01 10:12:17;;;;;;;13.50;1.52;;;;;;;;;;4935925;29;20055;-65
2022/09/01 10:15:12;;;;;;;47.58;4.22;;;;;;;;;;4937251;29;20036;-64
2022/09/01 10:17:44;;;;;;;17.92;1.83;;;;;;;;;;4928546;29;20060;-65
2022/09/01 10:20:16;;;;;;;433.48;33.97;;;;;;;;;;4943079;29;20098;-64
2022/09/01 10:22:43;;;;;;;31.55;2.70;;;;;;;;;;4937176;28;20397;-64
2022/09/01 10:25:15;;;;;;;42.13;5.18;;;;;;;;;;4937651;28;20051;-64
2022/09/01 10:27:45;;;;;;;43.20;3.78;;;;;;;;;;4934162;29;20742;-64
2022/09/01 10:30:15;;;;;;;12.13;1.25;;;;;;;;;;4953534;29;20039;-64
2022/09/01 10:32:57;;;;;;;47.67;4.05;;;;;;;;;;4952835;28;20511;-65
2022/09/01 10:35:40;;;;;;;33.90;2.92;;;;;;;;;;4943323;28;20039;-64
2022/09/01 10:38:08;;;;;;;35.13;2.88;;;;;;;;;;4937725;29;20403;-64
2022/09/01 10:40:39;;;;;;;15.45;1.55;;;;;;;;;;4937225;29;20044;-64
2022/09/01 10:43:24;;;;;;;36.63;3.17;;;;;;;;;;4951590;28;20074;-64
2022/09/01 10:45:51;;;;;;;74.07;6.30;;;;;;;;;;4935367;28;20086;-65
2022/09/01 10:48:28;;;;;;;25.95;2.40;;;;;;;;;;4934211;29;20520;-64
2022/09/01 10:51:13;;;;;;;13.90;1.48;;;;;;;;;;4937173;29;20048;-64
2022/09/01 10:53:45;;;;;;;61.63;4.50;;;;;;;;;;4937086;29;20583;-65
2022/09/01 10:56:34;;;;;;;22.17;2.17;;;;;;;;;;4937104;28;20403;-64
2022/09/01 10:59:05;;;;;;;36.83;3.20;;;;;;;;;;4936489;28;20058;-66
2022/09/01 11:01:51;;;;;;;32.58;3.10;;;;;;;;;;4936921;29;20485;-65
2022/09/01 11:04:19;;;;;;;36.65;3.08;;;;;;;;;;4936573;28;20079;-64
2022/09/01 11:06:49;;;;;;;423.30;31.40;;;;;;;;;;4934174;28;20051;-65
2022/09/01 11:09:43;;;;;;;118.40;7.38;;;;;;;;;;4936695;28;20524;-65
2022/09/01 11:12:28;;;;;;;23.17;2.33;;;;;;;;;;4935373;29;20471;-65
2022/09/01 11:15:00;;;;;;;41.38;3.67;;;;;;;;;;4936642;28;20059;-65
2022/09/01 11:17:31;;;;;;;31.08;2.80;;;;;;;;;;4936386;29;20066;-65
2022/09/01 11:20:04;;;;;;;31.60;3.10;;;;;;;;;;4943066;28;20043;-65
2022/09/01 11:22:31;;;;;;;;;;;;;;;;;;4937269;28;20119;-63
2022/09/01 11:25:07;;;;;;;45.63;4.18;;;;;;;;;;4935441;29;19926;-65
2022/09/01 11:27:47;;;;;;;85.75;5.75;;;;;;;;;;4951821;28;20043;-65
2022/09/01 11:30:16;;;;;;;64.70;3.95;;;;;;;;;;4943207;28;20047;-65
2022/09/01 11:32:45;;;;;;;44.28;4.28;;;;;;;;;;4943627;29;20147;-64
2022/09/01 11:35:17;;;;;;;58.08;5.80;;;;;;;;;;4943534;29;20119;-65
2022/09/01 11:37:48;;;;;;;45.50;3.95;;;;;;;;;;4936481;28;20051;-65
2022/09/01 11:40:26;;;;;;;18.45;1.92;;;;;;;;;;4937081;29;20035;-65
2022/09/01 11:43:00;;;;;;;28.00;2.63;;;;;;;;;;4935220;28;20082;-66
2022/09/01 11:45:31;;;;;;;38.10;3.45;;;;;;;;;;4937647;29;20456;-65
2022/09/01 11:48:00;;;;;;;20.48;1.95;;;;;;;;;;4940291;28;20039;-64
2022/09/01 11:50:28;;;;;;;40.60;3.65;;;;;;;;;;4940041;29;20063;-64
2022/09/01 11:52:57;;;;;;;170.18;11.65;;;;;;;;;;4940119;28;20110;-65
2022/09/01 11:55:40;;;;;;;25.33;2.05;;;;;;;;;;4940485;29;20381;-66
2022/09/01 11:58:11;;;;;;;21.98;2.20;;;;;;;;;;4940627;29;20114;-66
2022/09/01 12:00:43;;;;;;;57.40;4.95;;;;;;;;;;4919817;28;20087;-65
2022/09/01 12:03:22;;;;;;;40.55;3.38;;;;;;;;;;4939381;29;20114;-64
2022/09/01 12:06:00;;;;;;;19.45;2.22;;;;;;;;;;4945943;29;20051;-64
2022/09/01 12:08:37;;;;;;;34.80;3.10;;;;;;;;;;4944506;28;20044;-64
2022/09/01 12:11:07;;;;;;;21.58;2.15;;;;;;;;;;4940551;28;20227;-63
2022/09/01 12:13:34;;;;;;;188.23;13.13;;;;;;;;;;4938953;28;20048;-64
2022/09/01 12:16:05;;;;;;;55.35;4.88;;;;;;;;;;4950889;28;20139;-64
2022/09/01 12:18:46;;;;;;;56.42;5.07;;;;;;;;;;4939305;29;20217;-64
2022/09/01 12:21:19;;;;;;;17.85;1.73;;;;;;;;;;4939184;29;20048;-65
2022/09/01 12:23:47;;;;;;;22.85;2.30;;;;;;;;;;4939707;29;20067;-66
2022/09/01 12:26:15;;;;;;;47.67;4.30;;;;;;;;;;4942486;28;20397;-65
2022/09/01 12:28:42;;;;;;;28.98;2.67;;;;;;;;;;4939403;29;20499;-66
2022/09/01 12:31:17;;;;;;;50.53;3.42;;;;;;;;;;4939551;28;20039;-64
2022/09/01 12:33:44;;;;;;;421.48;36.85;;;;;;;;;;4950825;29;20408;-64
2022/09/01 12:36:28;;;;;;;28.10;2.75;;;;;;;;;;4939319;29;20119;-64
2022/09/01 12:38:56;;;;;;;40.33;3.65;;;;;;;;;;4939373;29;20526;-64
2022/09/01 12:41:26;;;;;;;24.98;2.35;;;;;;;;;;4938243;29;20051;-64
2022/09/01 12:43:54;;;;;;;38.40;3.42;;;;;;;;;;4939105;28;20449;-64
2022/09/01 12:46:42;;;;;;;58.92;5.03;;;;;;;;;;4938839;29;20511;-64
2022/09/01 12:49:15;;;;;;;21.48;2.08;;;;;;;;;;4954678;29;20078;-64
2022/09/01 12:51:41;;;;;;;40.92;3.67;;;;;;;;;;4936004;28;20054;-65
2022/09/01 12:54:10;;;;;;;12.35;1.45;;;;;;;;;;4938026;29;20048;-64
2022/09/01 12:56:38;;;;;;;39.65;3.42;;;;;;;;;;4936970;28;20131;-65
2022/09/01 12:59:04;;;;;;;40.92;3.75;;;;;;;;;;4924203;29;20130;-64
2022/09/01 13:01:38;;;;;;;30.67;2.78;;;;;;;;;;4949757;29;20122;-64
2022/09/01 13:04:07;;;;;;;33.33;3.08;;;;;;;;;;4938043;29;20055;-64
2022/09/01 13:06:33;;;;;;;343.02;27.88;;;;;;;;;;4939339;29;20079;-65
2022/09/01 13:09:00;;;;;;;1223.88;110.28;;;;;;;;;;4953661;28;20042;-64
2022/09/01 13:11:26;;;;;;;43.95;4.15;;;;;;;;;;4953718;28;20769;-64
2022/09/01 13:14:13;;;;;;;152.68;9.30;;;;;;;;;;4946350;28;20050;-64
2022/09/01 13:16:40;;;;;;;49.33;4.05;;;;;;;;;;4955468;28;20071;-64
2022/09/01 13:19:07;;;;;;;50.05;4.43;;;;;;;;;;4920171;29;20058;-64
2022/09/01 13:21:37;;;;;;;156.80;9.40;;;;;;;;;;4934779;28;20082;-64
2022/09/01 13:24:08;;;;;;;74.78;5.85;;;;;;;;;;4918911;29;20100;-64
2022/09/01 13:26:35;;;;;;;35.75;3.30;;;;;;;;;;4919611;29;20569;-64
2022/09/01 13:29:02;;;;;;;13.65;1.77;;;;;;;;;;4919256;29;20044;-64
2022/09/01 13:31:30;;;;;;;189.65;10.40;;;;;;;;;;4919430;29;20063;-64
2022/09/01 13:33:58;;;;;;;21.38;2.35;;;;;;;;;;4932636;29;20135;-64
2022/09/01 13:36:44;;;;;;;79.05;6.60;;;;;;;;;;4917640;29;20128;-65
2022/09/01 13:39:16;;;;;;;27.05;2.72;;;;;;;;;;4918361;29;20100;-64
2022/09/01 13:41:45;;;;;;;23.42;2.30;;;;;;;;;;4919232;29;20047;-64
2022/09/01 13:44:12;;;;;;;135.68;10.32;;;;;;;;;;4918885;29;20120;-64
2022/09/01 13:46:40;;;;;;;39.20;2.70;;;;;;;;;;4919077;29;20083;-65
2022/09/01 13:49:27;;;;;;;42.22;3.63;;;;;;;;;;4919025;29;20036;-64
2022/09/01 13:52:13;;;;;;;127.85;10.18;;;;;;;;;;4919104;29;20107;-64
2022/09/01 13:54:40;;;;;;;41.75;3.63;;;;;;;;;;4898500;29;20123;-64
2022/09/01 13:57:07;;;;;;;20.45;2.00;;;;;;;;;;4918388;29;20051;-65
2022/09/01 13:59:33;;;;;;;34.38;3.00;;;;;;;;;;4919009;29;20123;-65
2022/09/01 14:02:00;;;;;;;48.30;3.88;;;;;;;;;;4918743;29;20050;-64
2022/09/01 14:04:27;;;;;;;41.30;3.53;;;;;;;;;;4919219;29;20556;-64
2022/09/01 14:06:53;;;;;;;39.03;3.35;;;;;;;;;;4916585;29;20493;-63
2022/09/01 14:09:20;;;;;;;29.60;2.75;;;;;;;;;;4917010;29;20040;-65
2022/09/01 14:11:47;;;;;;;51.92;4.22;;;;;;;;;;4918229;29;20044;-64
2022/09/01 14:14:13;;;;;;;48.58;3.83;;;;;;;;;;4924303;29;20044;-64
2022/09/01 14:16:40;;;;;;;71.05;5.85;;;;;;;;;;4917719;29;20059;-67
2022/09/01 14:19:07;;;;;;;45.05;4.03;;;;;;;;;;4947384;29;20037;-66
2022/09/01 14:21:33;;;;;;;30.02;2.55;;;;;;;;;;4952876;28;20074;-64
2022/09/01 14:24:00;;;;;;;26.27;2.28;;;;;;;;;;4948367;29;20452;-66
2022/09/01 14:26:26;;;;;;;19.17;1.95;;;;;;;;;;4948148;29;20047;-66
2022/09/01 14:28:53;;;;;;;24.42;2.38;;;;;;;;;;4948032;28;20500;-66
2022/09/01 14:31:20;;;;;;;23.50;2.22;;;;;;;;;;4948406;29;20035;-66
2022/09/01 14:33:48;;;;;;;51.67;4.03;;;;;;;;;;4936510;29;20055;-66
2022/09/01 14:36:16;;;;;;;33.47;2.60;;;;;;;;;;4949633;29;20039;-65
2022/09/01 14:38:42;;;;;;;45.42;3.70;;;;;;;;;;4947868;29;20427;-65
2022/09/01 14:41:12;;;;;;;9.38;1.20;;;;;;;;;;4947886;28;20047;-65
2022/09/01 14:43:40;;;;;;;279.25;19.15;;;;;;;;;;4948334;29;20070;-65
2022/09/01 14:46:08;;;;;;;48.25;4.32;;;;;;;;;;4948385;29;20437;-65
2022/09/01 14:48:35;;;;;;;32.08;2.85;;;;;;;;;;4933613;29;20039;-65
2022/09/01 14:51:01;;;;;;;61.67;5.07;;;;;;;;;;4947901;29;20039;-65
2022/09/01 14:53:29;;;;;;;31.98;3.25;;;;;;;;;;4947773;29;20070;-65
2022/09/01 14:55:56;;;;;;;14.27;1.45;;;;;;;;;;4947865;29;20039;-65
2022/09/01 14:58:24;;;;;;;17.98;2.17;;;;;;;;;;4947792;29;20781;-66
2022/09/01 15:00:50;;;;;;;199.95;14.90;;;;;;;;;;4950221;29;20145;-65